FBMN

Details ICAO FBMN (MUB)
Name MAUN
Region Botswana
Timezone Africa/Gaborone (UTC+2.0)
Plans Departing 19
Arriving 27
Stats Elevation 3,093 ft / 943 m (AMSL)
Location -19.972564° 23.431085°
Runways 1
Magnetic Variation 9.255° W
Sunrise 2017-12-18 03:44:07 UTC / 2017-12-18 05:44:07 Local
Sunset 2017-12-18 17:04:18 UTC / 2017-12-18 19:04:18 Local
Advertisement - Login to hide

Runways

ID Width Length Bearing (true) Bearing (mag) Surface Threshold Offset Overrun Length
08 98 ft / 30 m 6,520 ft / 1,987 m 65.89° 75.14° Asphalt 0 ft / 0 m 650 ft / 198 m
26 98 ft / 30 m 6,520 ft / 1,987 m 245.88° 255.13° Asphalt 0 ft / 0 m 200 ft / 61 m

Map

Weather


0- 5 10 15 20 25 30 35+ Temperature / ° C

Clouds and Precipitation
Forecast for 2017-12-18 18:00 UTC. Updated 6 minutes ago

Ground ~20,000 ft ~40,000 ft Winds

METAR

FBMN 181500Z 36008KT 9999 FEW030 FEW035CB 35/15 Q1009

TAF

Not found

Frequencies

Ground 121.90 MHz GND
Tower 118.70 MHz AFIS
Tower 118.70 MHz TWR
Approach 126.00 MHz APP
Warning: Do not use this data for real-world aviation or navigation. No guarantee of current accuracy is given.